createdAt,value
2022-11-19T00:01:42.505Z,26.25
2022-11-19T00:03:56.283Z,27.59
2022-11-19T00:06:11.361Z,26.83
2022-11-19T00:08:21.012Z,27.42
2022-11-19T00:10:27.494Z,27.45
2022-11-19T00:12:45.704Z,26.96
2022-11-19T00:14:51.366Z,26.91
2022-11-19T00:16:58.025Z,25.30
2022-11-19T00:19:03.835Z,23.73
2022-11-19T00:21:16.501Z,20.59
2022-11-19T00:23:22.980Z,19.60
2022-11-19T00:25:31.648Z,18.26
2022-11-19T00:27:37.431Z,22.13
2022-11-19T00:29:43.934Z,22.10
2022-11-19T00:31:49.558Z,21.97
2022-11-19T00:33:55.307Z,22.31
2022-11-19T00:36:03.484Z,21.43
2022-11-19T00:38:11.865Z,21.48
2022-11-19T00:40:17.662Z,21.48
2022-11-19T00:42:24.693Z,22.02
2022-11-19T00:44:30.344Z,21.44
2022-11-19T00:46:39.790Z,20.76
2022-11-19T00:48:47.791Z,21.50
2022-11-19T00:50:55.458Z,21.67
2022-11-19T00:53:01.169Z,22.94
2022-11-19T00:55:12.318Z,22.80
2022-11-19T00:57:18.001Z,23.97
2022-11-19T00:59:23.689Z,24.47
2022-11-19T01:01:44.982Z,23.79
2022-11-19T01:03:52.154Z,24.54
2022-11-19T01:05:58.462Z,25.71
2022-11-19T01:08:05.086Z,26.14
2022-11-19T01:10:16.283Z,24.81
2022-11-19T01:12:22.028Z,26.68
2022-11-19T01:14:28.575Z,24.84
2022-11-19T01:16:43.765Z,23.64
2022-11-19T01:18:52.218Z,22.01
2022-11-19T01:20:59.023Z,21.18
2022-11-19T01:23:04.767Z,20.80
2022-11-19T01:25:16.891Z,21.28
2022-11-19T01:27:23.413Z,22.31
2022-11-19T01:29:29.311Z,21.95
2022-11-19T01:31:35.012Z,21.79
2022-11-19T01:33:41.757Z,21.47
2022-11-19T01:35:47.506Z,22.16
2022-11-19T01:37:56.334Z,22.61
2022-11-19T01:40:02.829Z,23.46
2022-11-19T01:42:40.055Z,23.53
2022-11-19T01:45:09.674Z,24.11
2022-11-19T01:47:16.617Z,24.37
2022-11-19T01:49:24.235Z,23.57
2022-11-19T01:51:39.614Z,23.49
2022-11-19T01:54:04.787Z,24.48
2022-11-19T01:56:20.699Z,23.66
2022-11-19T01:58:29.685Z,24.07
2022-11-19T02:00:37.153Z,24.88
2022-11-19T02:02:42.940Z,23.38
